sensor_id;sensor_type;location;lat;lon;timestamp;temperature;humidity
22787;DHT22;63134;52.020;4.714;2023-12-04T00:01:54;3.50;98.00
22787;DHT22;63134;52.020;4.714;2023-12-04T00:04:40;3.50;98.00
22787;DHT22;63134;52.020;4.714;2023-12-04T00:07:26;3.50;97.80
22787;DHT22;63134;52.020;4.714;2023-12-04T00:10:12;3.50;97.70
22787;DHT22;63134;52.020;4.714;2023-12-04T00:12:57;3.50;97.60
22787;DHT22;63134;52.020;4.714;2023-12-04T00:15:44;3.40;97.60
22787;DHT22;63134;52.020;4.714;2023-12-04T00:18:29;3.50;97.60
22787;DHT22;63134;52.020;4.714;2023-12-04T00:21:15;3.50;97.70
22787;DHT22;63134;52.020;4.714;2023-12-04T00:24:04;3.50;97.70
22787;DHT22;63134;52.020;4.714;2023-12-04T00:26:51;3.50;97.80
22787;DHT22;63134;52.020;4.714;2023-12-04T00:29:37;3.50;97.90
22787;DHT22;63134;52.020;4.714;2023-12-04T00:32:23;3.50;97.70
22787;DHT22;63134;52.020;4.714;2023-12-04T00:35:09;3.60;97.80
22787;DHT22;63134;52.020;4.714;2023-12-04T00:37:57;3.50;97.90
22787;DHT22;63134;52.020;4.714;2023-12-04T00:40:43;3.50;97.80
22787;DHT22;63134;52.020;4.714;2023-12-04T00:43:29;3.60;97.80
22787;DHT22;63134;52.020;4.714;2023-12-04T00:46:15;3.60;97.90
22787;DHT22;63134;52.020;4.714;2023-12-04T00:49:01;3.60;97.90
22787;DHT22;63134;52.020;4.714;2023-12-04T00:51:47;3.60;97.90
22787;DHT22;63134;52.020;4.714;2023-12-04T00:54:33;3.60;97.70
22787;DHT22;63134;52.020;4.714;2023-12-04T00:57:18;3.60;97.70
22787;DHT22;63134;52.020;4.714;2023-12-04T01:00:05;3.50;97.80
22787;DHT22;63134;52.020;4.714;2023-12-04T01:02:52;3.50;97.40
22787;DHT22;63134;52.020;4.714;2023-12-04T01:05:37;3.50;97.40
22787;DHT22;63134;52.020;4.714;2023-12-04T01:08:23;3.50;97.50
22787;DHT22;63134;52.020;4.714;2023-12-04T01:11:09;3.50;97.60
22787;DHT22;63134;52.020;4.714;2023-12-04T01:13:55;3.40;97.60
22787;DHT22;63134;52.020;4.714;2023-12-04T01:16:41;3.40;97.90
22787;DHT22;63134;52.020;4.714;2023-12-04T01:19:27;3.40;97.70
22787;DHT22;63134;52.020;4.714;2023-12-04T01:22:13;3.40;97.90
22787;DHT22;63134;52.020;4.714;2023-12-04T01:24:58;3.50;98.00
22787;DHT22;63134;52.020;4.714;2023-12-04T01:27:47;3.50;97.90
22787;DHT22;63134;52.020;4.714;2023-12-04T01:30:33;3.50;97.80
22787;DHT22;63134;52.020;4.714;2023-12-04T01:33:19;3.60;97.60
22787;DHT22;63134;52.020;4.714;2023-12-04T01:36:06;3.60;97.60
22787;DHT22;63134;52.020;4.714;2023-12-04T01:38:51;3.50;97.50
22787;DHT22;63134;52.020;4.714;2023-12-04T01:41:37;3.60;97.50
22787;DHT22;63134;52.020;4.714;2023-12-04T01:44:22;3.60;97.70
22787;DHT22;63134;52.020;4.714;2023-12-04T01:47:08;3.60;97.70
22787;DHT22;63134;52.020;4.714;2023-12-04T01:49:55;3.60;97.60
22787;DHT22;63134;52.020;4.714;2023-12-04T01:52:40;3.60;97.70
22787;DHT22;63134;52.020;4.714;2023-12-04T01:55:27;3.60;97.70
22787;DHT22;63134;52.020;4.714;2023-12-04T01:58:13;3.60;97.40
22787;DHT22;63134;52.020;4.714;2023-12-04T02:00:59;3.60;97.40
22787;DHT22;63134;52.020;4.714;2023-12-04T02:03:45;3.60;97.40
22787;DHT22;63134;52.020;4.714;2023-12-04T02:06:31;3.60;97.40
22787;DHT22;63134;52.020;4.714;2023-12-04T02:09:17;3.60;97.30
22787;DHT22;63134;52.020;4.714;2023-12-04T02:12:07;3.60;97.10
22787;DHT22;63134;52.020;4.714;2023-12-04T02:14:52;3.60;97.20
22787;DHT22;63134;52.020;4.714;2023-12-04T02:17:39;3.60;97.10
22787;DHT22;63134;52.020;4.714;2023-12-04T02:20:32;3.60;97.20
22787;DHT22;63134;52.020;4.714;2023-12-04T02:23:18;3.60;97.20
22787;DHT22;63134;52.020;4.714;2023-12-04T02:26:20;3.60;97.10
22787;DHT22;63134;52.020;4.714;2023-12-04T02:29:14;3.60;97.30
22787;DHT22;63134;52.020;4.714;2023-12-04T02:32:04;3.60;97.20
22787;DHT22;63134;52.020;4.714;2023-12-04T02:34:52;3.60;97.20
22787;DHT22;63134;52.020;4.714;2023-12-04T02:37:41;3.60;97.20
22787;DHT22;63134;52.020;4.714;2023-12-04T02:40:27;3.60;97.20
22787;DHT22;63134;52.020;4.714;2023-12-04T02:43:13;3.60;97.10
22787;DHT22;63134;52.020;4.714;2023-12-04T02:46:00;3.60;97.10
22787;DHT22;63134;52.020;4.714;2023-12-04T02:48:46;3.60;97.20
22787;DHT22;63134;52.020;4.714;2023-12-04T02:51:32;3.60;97.20
22787;DHT22;63134;52.020;4.714;2023-12-04T02:54:17;3.60;97.10
22787;DHT22;63134;52.020;4.714;2023-12-04T02:57:03;3.60;97.00
22787;DHT22;63134;52.020;4.714;2023-12-04T02:59:49;3.50;97.00
22787;DHT22;63134;52.020;4.714;2023-12-04T03:02:36;3.50;96.90
22787;DHT22;63134;52.020;4.714;2023-12-04T03:05:21;3.50;96.90
22787;DHT22;63134;52.020;4.714;2023-12-04T03:08:07;3.50;96.90
22787;DHT22;63134;52.020;4.714;2023-12-04T03:10:52;3.50;97.00
22787;DHT22;63134;52.020;4.714;2023-12-04T03:13:40;3.50;96.90
22787;DHT22;63134;52.020;4.714;2023-12-04T03:16:26;3.50;96.90
22787;DHT22;63134;52.020;4.714;2023-12-04T03:19:12;3.50;96.90
22787;DHT22;63134;52.020;4.714;2023-12-04T03:22:00;3.40;96.90
22787;DHT22;63134;52.020;4.714;2023-12-04T03:24:49;3.40;96.90
22787;DHT22;63134;52.020;4.714;2023-12-04T03:27:35;3.40;97.00
22787;DHT22;63134;52.020;4.714;2023-12-04T03:30:21;3.40;97.00
22787;DHT22;63134;52.020;4.714;2023-12-04T03:33:10;3.40;96.90
22787;DHT22;63134;52.020;4.714;2023-12-04T03:36:00;3.50;96.90
22787;DHT22;63134;52.020;4.714;2023-12-04T03:38:46;3.40;96.70
22787;DHT22;63134;52.020;4.714;2023-12-04T03:41:34;3.30;96.60
22787;DHT22;63134;52.020;4.714;2023-12-04T03:44:19;3.30;96.70
22787;DHT22;63134;52.020;4.714;2023-12-04T03:47:06;3.30;96.80
22787;DHT22;63134;52.020;4.714;2023-12-04T03:49:52;3.30;96.80
22787;DHT22;63134;52.020;4.714;2023-12-04T03:52:41;3.30;96.70
22787;DHT22;63134;52.020;4.714;2023-12-04T03:55:27;3.30;96.80
22787;DHT22;63134;52.020;4.714;2023-12-04T03:58:13;3.30;96.70
22787;DHT22;63134;52.020;4.714;2023-12-04T04:01:04;3.30;96.70
22787;DHT22;63134;52.020;4.714;2023-12-04T04:03:50;3.30;96.60
22787;DHT22;63134;52.020;4.714;2023-12-04T04:06:36;3.30;96.70
22787;DHT22;63134;52.020;4.714;2023-12-04T04:09:23;3.30;96.60
22787;DHT22;63134;52.020;4.714;2023-12-04T04:12:11;3.30;96.70
22787;DHT22;63134;52.020;4.714;2023-12-04T04:14:58;3.30;96.70
22787;DHT22;63134;52.020;4.714;2023-12-04T04:17:43;3.30;96.70
22787;DHT22;63134;52.020;4.714;2023-12-04T04:20:31;3.30;96.70
22787;DHT22;63134;52.020;4.714;2023-12-04T04:23:17;3.30;96.70
22787;DHT22;63134;52.020;4.714;2023-12-04T04:26:06;3.30;96.70
22787;DHT22;63134;52.020;4.714;2023-12-04T04:28:52;3.40;96.70
22787;DHT22;63134;52.020;4.714;2023-12-04T04:31:38;3.30;96.60
22787;DHT22;63134;52.020;4.714;2023-12-04T04:34:27;3.40;96.50
22787;DHT22;63134;52.020;4.714;2023-12-04T04:37:13;3.40;96.50
22787;DHT22;63134;52.020;4.714;2023-12-04T04:40:01;3.40;96.60
22787;DHT22;63134;52.020;4.714;2023-12-04T04:42:47;3.40;96.60
22787;DHT22;63134;52.020;4.714;2023-12-04T04:45:34;3.40;96.50
22787;DHT22;63134;52.020;4.714;2023-12-04T04:48:20;3.40;96.50
22787;DHT22;63134;52.020;4.714;2023-12-04T04:51:06;3.40;96.40
22787;DHT22;63134;52.020;4.714;2023-12-04T04:53:51;3.40;96.40
22787;DHT22;63134;52.020;4.714;2023-12-04T04:56:37;3.40;96.40
22787;DHT22;63134;52.020;4.714;2023-12-04T04:59:22;3.40;96.40
22787;DHT22;63134;52.020;4.714;2023-12-04T05:02:08;3.40;96.30
22787;DHT22;63134;52.020;4.714;2023-12-04T05:04:54;3.50;96.40
22787;DHT22;63134;52.020;4.714;2023-12-04T05:07:40;3.50;96.30
22787;DHT22;63134;52.020;4.714;2023-12-04T05:10:25;3.50;96.30
22787;DHT22;63134;52.020;4.714;2023-12-04T05:13:11;3.50;96.30
22787;DHT22;63134;52.020;4.714;2023-12-04T05:15:56;3.50;96.20
22787;DHT22;63134;52.020;4.714;2023-12-04T05:18:43;3.50;96.20
22787;DHT22;63134;52.020;4.714;2023-12-04T05:21:32;3.50;96.20
22787;DHT22;63134;52.020;4.714;2023-12-04T05:24:18;3.50;96.20
22787;DHT22;63134;52.020;4.714;2023-12-04T05:27:04;3.50;96.10
22787;DHT22;63134;52.020;4.714;2023-12-04T05:29:49;3.60;96.20
22787;DHT22;63134;52.020;4.714;2023-12-04T05:32:35;3.60;96.20
22787;DHT22;63134;52.020;4.714;2023-12-04T05:35:21;3.60;96.30
22787;DHT22;63134;52.020;4.714;2023-12-04T05:38:07;3.60;96.20
22787;DHT22;63134;52.020;4.714;2023-12-04T05:40:54;3.70;96.20
22787;DHT22;63134;52.020;4.714;2023-12-04T05:43:40;3.70;96.10
22787;DHT22;63134;52.020;4.714;2023-12-04T05:46:25;3.70;96.10
22787;DHT22;63134;52.020;4.714;2023-12-04T05:49:11;3.70;96.00
22787;DHT22;63134;52.020;4.714;2023-12-04T05:51:57;3.70;96.00
22787;DHT22;63134;52.020;4.714;2023-12-04T05:54:42;3.70;96.00
22787;DHT22;63134;52.020;4.714;2023-12-04T05:57:28;3.80;96.10
22787;DHT22;63134;52.020;4.714;2023-12-04T06:00:14;3.80;96.10
22787;DHT22;63134;52.020;4.714;2023-12-04T06:03:00;3.80;96.00
22787;DHT22;63134;52.020;4.714;2023-12-04T06:05:46;3.90;96.00
22787;DHT22;63134;52.020;4.714;2023-12-04T06:08:33;3.90;95.80
22787;DHT22;63134;52.020;4.714;2023-12-04T06:11:18;3.90;95.70
22787;DHT22;63134;52.020;4.714;2023-12-04T06:14:07;3.90;95.60
22787;DHT22;63134;52.020;4.714;2023-12-04T06:16:52;3.90;95.50
22787;DHT22;63134;52.020;4.714;2023-12-04T06:19:40;3.80;95.50
22787;DHT22;63134;52.020;4.714;2023-12-04T06:22:25;3.80;95.50
22787;DHT22;63134;52.020;4.714;2023-12-04T06:25:11;3.90;95.70
22787;DHT22;63134;52.020;4.714;2023-12-04T06:28:02;3.90;95.80
22787;DHT22;63134;52.020;4.714;2023-12-04T06:30:49;3.90;95.60
22787;DHT22;63134;52.020;4.714;2023-12-04T06:33:39;3.90;95.60
22787;DHT22;63134;52.020;4.714;2023-12-04T06:36:31;3.90;95.60
22787;DHT22;63134;52.020;4.714;2023-12-04T06:39:19;3.90;95.50
22787;DHT22;63134;52.020;4.714;2023-12-04T06:42:06;3.90;95.60
22787;DHT22;63134;52.020;4.714;2023-12-04T06:44:57;3.90;95.60
22787;DHT22;63134;52.020;4.714;2023-12-04T06:47:43;3.90;95.40
22787;DHT22;63134;52.020;4.714;2023-12-04T06:50:33;3.90;95.50
22787;DHT22;63134;52.020;4.714;2023-12-04T06:53:19;3.90;95.50
22787;DHT22;63134;52.020;4.714;2023-12-04T06:56:05;4.00;95.50
22787;DHT22;63134;52.020;4.714;2023-12-04T06:58:56;4.00;95.60
22787;DHT22;63134;52.020;4.714;2023-12-04T07:01:41;4.00;95.60
22787;DHT22;63134;52.020;4.714;2023-12-04T07:04:32;4.00;95.60
22787;DHT22;63134;52.020;4.714;2023-12-04T07:07:19;4.00;95.60
22787;DHT22;63134;52.020;4.714;2023-12-04T07:10:05;4.00;95.60
22787;DHT22;63134;52.020;4.714;2023-12-04T07:12:50;4.10;95.60
22787;DHT22;63134;52.020;4.714;2023-12-04T07:15:36;4.10;95.50
22787;DHT22;63134;52.020;4.714;2023-12-04T07:18:21;4.10;95.50
22787;DHT22;63134;52.020;4.714;2023-12-04T07:21:08;4.10;95.70
22787;DHT22;63134;52.020;4.714;2023-12-04T07:23:53;4.10;95.30
22787;DHT22;63134;52.020;4.714;2023-12-04T07:26:41;4.10;95.30
22787;DHT22;63134;52.020;4.714;2023-12-04T07:29:27;4.20;95.40
22787;DHT22;63134;52.020;4.714;2023-12-04T07:32:17;4.20;95.40
22787;DHT22;63134;52.020;4.714;2023-12-04T07:35:06;4.20;95.20
22787;DHT22;63134;52.020;4.714;2023-12-04T07:37:55;4.20;95.10
22787;DHT22;63134;52.020;4.714;2023-12-04T07:40:44;4.20;95.10
22787;DHT22;63134;52.020;4.714;2023-12-04T07:43:30;4.20;95.10
22787;DHT22;63134;52.020;4.714;2023-12-04T07:46:18;4.20;95.10
22787;DHT22;63134;52.020;4.714;2023-12-04T07:49:07;4.30;95.20
22787;DHT22;63134;52.020;4.714;2023-12-04T07:51:54;4.30;95.10
22787;DHT22;63134;52.020;4.714;2023-12-04T07:54:41;4.30;95.10
22787;DHT22;63134;52.020;4.714;2023-12-04T07:57:30;4.30;95.00
22787;DHT22;63134;52.020;4.714;2023-12-04T08:00:18;4.40;95.00
22787;DHT22;63134;52.020;4.714;2023-12-04T08:03:12;4.40;95.00
22787;DHT22;63134;52.020;4.714;2023-12-04T08:06:02;4.40;95.00
22787;DHT22;63134;52.020;4.714;2023-12-04T08:08:48;4.50;95.10
22787;DHT22;63134;52.020;4.714;2023-12-04T08:11:34;4.50;95.00
22787;DHT22;63134;52.020;4.714;2023-12-04T08:14:20;4.50;94.90
22787;DHT22;63134;52.020;4.714;2023-12-04T08:17:05;4.60;94.70
22787;DHT22;63134;52.020;4.714;2023-12-04T08:19:52;4.60;94.70
22787;DHT22;63134;52.020;4.714;2023-12-04T08:22:40;4.60;94.60
22787;DHT22;63134;52.020;4.714;2023-12-04T08:25:29;4.60;94.50
22787;DHT22;63134;52.020;4.714;2023-12-04T08:28:15;4.70;94.30
22787;DHT22;63134;52.020;4.714;2023-12-04T08:31:01;4.70;94.40
22787;DHT22;63134;52.020;4.714;2023-12-04T08:33:46;4.80;94.20
22787;DHT22;63134;52.020;4.714;2023-12-04T08:36:34;4.70;94.20
22787;DHT22;63134;52.020;4.714;2023-12-04T08:39:30;4.80;94.10
22787;DHT22;63134;52.020;4.714;2023-12-04T08:42:19;4.80;94.00
22787;DHT22;63134;52.020;4.714;2023-12-04T08:45:09;4.80;94.10
22787;DHT22;63134;52.020;4.714;2023-12-04T08:47:54;4.80;94.20
22787;DHT22;63134;52.020;4.714;2023-12-04T08:50:42;4.80;93.90
22787;DHT22;63134;52.020;4.714;2023-12-04T08:53:28;4.80;93.90
22787;DHT22;63134;52.020;4.714;2023-12-04T08:56:16;4.80;93.90
22787;DHT22;63134;52.020;4.714;2023-12-04T08:59:15;4.90;94.00
22787;DHT22;63134;52.020;4.714;2023-12-04T09:02:02;4.90;94.00
22787;DHT22;63134;52.020;4.714;2023-12-04T09:04:50;4.90;93.80
22787;DHT22;63134;52.020;4.714;2023-12-04T09:07:36;4.90;93.80
22787;DHT22;63134;52.020;4.714;2023-12-04T09:10:25;4.90;93.80
22787;DHT22;63134;52.020;4.714;2023-12-04T09:13:31;4.90;93.60
22787;DHT22;63134;52.020;4.714;2023-12-04T09:16:21;4.90;93.40
22787;DHT22;63134;52.020;4.714;2023-12-04T09:19:07;5.00;93.50
22787;DHT22;63134;52.020;4.714;2023-12-04T09:21:53;5.00;93.90
22787;DHT22;63134;52.020;4.714;2023-12-04T09:24:53;5.10;93.50
22787;DHT22;63134;52.020;4.714;2023-12-04T09:27:39;5.10;93.20
22787;DHT22;63134;52.020;4.714;2023-12-04T09:30:25;5.20;93.10
22787;DHT22;63134;52.020;4.714;2023-12-04T09:33:13;5.20;93.00
22787;DHT22;63134;52.020;4.714;2023-12-04T09:35:59;5.20;93.10
22787;DHT22;63134;52.020;4.714;2023-12-04T09:38:46;5.20;92.80
22787;DHT22;63134;52.020;4.714;2023-12-04T09:41:33;5.20;92.70
22787;DHT22;63134;52.020;4.714;2023-12-04T09:44:22;5.30;92.60
22787;DHT22;63134;52.020;4.714;2023-12-04T09:47:09;5.20;92.50
22787;DHT22;63134;52.020;4.714;2023-12-04T09:49:56;5.30;92.70
22787;DHT22;63134;52.020;4.714;2023-12-04T09:52:43;5.30;92.60
22787;DHT22;63134;52.020;4.714;2023-12-04T09:55:29;5.40;92.60
22787;DHT22;63134;52.020;4.714;2023-12-04T09:58:19;5.40;92.50
22787;DHT22;63134;52.020;4.714;2023-12-04T10:01:07;5.40;92.50
22787;DHT22;63134;52.020;4.714;2023-12-04T10:03:58;5.40;92.40
22787;DHT22;63134;52.020;4.714;2023-12-04T10:06:45;5.50;92.40
22787;DHT22;63134;52.020;4.714;2023-12-04T10:09:30;5.50;92.30
22787;DHT22;63134;52.020;4.714;2023-12-04T10:12:22;5.50;92.20
22787;DHT22;63134;52.020;4.714;2023-12-04T10:15:12;5.60;91.90
22787;DHT22;63134;52.020;4.714;2023-12-04T10:18:00;5.60;92.00
22787;DHT22;63134;52.020;4.714;2023-12-04T10:20:53;5.70;92.20
22787;DHT22;63134;52.020;4.714;2023-12-04T10:23:41;5.80;91.90
22787;DHT22;63134;52.020;4.714;2023-12-04T10:26:29;5.90;91.90
22787;DHT22;63134;52.020;4.714;2023-12-04T10:29:15;5.90;91.50
22787;DHT22;63134;52.020;4.714;2023-12-04T10:32:01;6.00;91.80
22787;DHT22;63134;52.020;4.714;2023-12-04T10:34:48;6.10;91.60
22787;DHT22;63134;52.020;4.714;2023-12-04T10:37:36;6.10;91.40
22787;DHT22;63134;52.020;4.714;2023-12-04T10:40:23;6.10;91.30
22787;DHT22;63134;52.020;4.714;2023-12-04T10:43:10;6.10;91.30
22787;DHT22;63134;52.020;4.714;2023-12-04T10:45:56;6.10;90.90
22787;DHT22;63134;52.020;4.714;2023-12-04T10:48:42;6.10;91.00
22787;DHT22;63134;52.020;4.714;2023-12-04T10:51:30;6.10;90.90
22787;DHT22;63134;52.020;4.714;2023-12-04T10:54:16;6.10;91.00
22787;DHT22;63134;52.020;4.714;2023-12-04T10:57:05;6.10;90.80
22787;DHT22;63134;52.020;4.714;2023-12-04T10:59:52;6.10;90.70
22787;DHT22;63134;52.020;4.714;2023-12-04T11:02:43;6.10;90.50
22787;DHT22;63134;52.020;4.714;2023-12-04T11:05:40;6.10;90.60
22787;DHT22;63134;52.020;4.714;2023-12-04T11:08:33;6.10;90.50
22787;DHT22;63134;52.020;4.714;2023-12-04T11:11:26;6.20;90.70
22787;DHT22;63134;52.020;4.714;2023-12-04T11:14:14;6.20;90.60
22787;DHT22;63134;52.020;4.714;2023-12-04T11:17:05;6.20;90.50
22787;DHT22;63134;52.020;4.714;2023-12-04T11:20:07;6.20;90.20
22787;DHT22;63134;52.020;4.714;2023-12-04T11:22:55;6.30;90.40
22787;DHT22;63134;52.020;4.714;2023-12-04T11:25:47;6.30;90.40
22787;DHT22;63134;52.020;4.714;2023-12-04T11:28:33;6.40;90.30
22787;DHT22;63134;52.020;4.714;2023-12-04T11:31:20;6.50;90.00
22787;DHT22;63134;52.020;4.714;2023-12-04T11:34:08;6.50;90.00
22787;DHT22;63134;52.020;4.714;2023-12-04T11:36:57;6.50;89.60
22787;DHT22;63134;52.020;4.714;2023-12-04T11:39:46;6.40;88.50
22787;DHT22;63134;52.020;4.714;2023-12-04T11:42:33;6.30;88.20
22787;DHT22;63134;52.020;4.714;2023-12-04T11:45:22;6.20;88.80
22787;DHT22;63134;52.020;4.714;2023-12-04T11:48:08;6.20;89.30
22787;DHT22;63134;52.020;4.714;2023-12-04T11:50:56;6.30;89.50
22787;DHT22;63134;52.020;4.714;2023-12-04T11:53:44;6.30;89.60
22787;DHT22;63134;52.020;4.714;2023-12-04T11:56:30;6.30;89.20
22787;DHT22;63134;52.020;4.714;2023-12-04T11:59:19;6.40;89.20
22787;DHT22;63134;52.020;4.714;2023-12-04T12:02:11;6.40;89.10
22787;DHT22;63134;52.020;4.714;2023-12-04T12:04:58;6.40;88.80
22787;DHT22;63134;52.020;4.714;2023-12-04T12:07:44;6.40;88.80
22787;DHT22;63134;52.020;4.714;2023-12-04T12:10:32;6.40;88.80
22787;DHT22;63134;52.020;4.714;2023-12-04T12:13:18;6.40;89.50
22787;DHT22;63134;52.020;4.714;2023-12-04T12:16:05;6.40;89.10
22787;DHT22;63134;52.020;4.714;2023-12-04T12:18:50;6.50;89.20
22787;DHT22;63134;52.020;4.714;2023-12-04T12:21:36;6.50;89.00
22787;DHT22;63134;52.020;4.714;2023-12-04T12:24:24;6.50;88.60
22787;DHT22;63134;52.020;4.714;2023-12-04T12:27:13;6.40;88.70
22787;DHT22;63134;52.020;4.714;2023-12-04T12:29:59;6.30;88.60
22787;DHT22;63134;52.020;4.714;2023-12-04T12:32:46;6.30;88.80
22787;DHT22;63134;52.020;4.714;2023-12-04T12:35:34;6.20;89.40
22787;DHT22;63134;52.020;4.714;2023-12-04T12:38:25;6.30;89.40
22787;DHT22;63134;52.020;4.714;2023-12-04T12:41:10;6.30;89.70
22787;DHT22;63134;52.020;4.714;2023-12-04T12:43:57;6.30;89.50
22787;DHT22;63134;52.020;4.714;2023-12-04T12:46:47;6.30;89.50
22787;DHT22;63134;52.020;4.714;2023-12-04T12:49:34;6.30;89.50
22787;DHT22;63134;52.020;4.714;2023-12-04T12:52:26;6.30;89.50
22787;DHT22;63134;52.020;4.714;2023-12-04T12:55:22;6.30;89.70
22787;DHT22;63134;52.020;4.714;2023-12-04T12:58:10;6.30;89.70
22787;DHT22;63134;52.020;4.714;2023-12-04T13:00:56;6.30;89.80
22787;DHT22;63134;52.020;4.714;2023-12-04T13:03:45;6.30;90.10
22787;DHT22;63134;52.020;4.714;2023-12-04T13:06:34;6.30;89.10
22787;DHT22;63134;52.020;4.714;2023-12-04T13:09:23;6.30;89.20
22787;DHT22;63134;52.020;4.714;2023-12-04T13:12:09;6.30;89.00
22787;DHT22;63134;52.020;4.714;2023-12-04T13:14:55;6.20;89.40
22787;DHT22;63134;52.020;4.714;2023-12-04T13:17:43;6.20;89.00
22787;DHT22;63134;52.020;4.714;2023-12-04T13:20:30;6.30;89.50
22787;DHT22;63134;52.020;4.714;2023-12-04T13:23:15;6.30;89.10
22787;DHT22;63134;52.020;4.714;2023-12-04T13:26:03;6.30;89.40
22787;DHT22;63134;52.020;4.714;2023-12-04T13:28:50;6.40;89.10
22787;DHT22;63134;52.020;4.714;2023-12-04T13:31:40;6.40;89.20
22787;DHT22;63134;52.020;4.714;2023-12-04T13:34:26;6.50;89.20
22787;DHT22;63134;52.020;4.714;2023-12-04T13:37:11;6.60;88.60
22787;DHT22;63134;52.020;4.714;2023-12-04T13:39:57;6.60;88.50
22787;DHT22;63134;52.020;4.714;2023-12-04T13:42:43;6.60;88.50
22787;DHT22;63134;52.020;4.714;2023-12-04T13:45:47;6.60;88.60
22787;DHT22;63134;52.020;4.714;2023-12-04T13:48:33;6.50;88.80
22787;DHT22;63134;52.020;4.714;2023-12-04T13:51:18;6.50;89.70
22787;DHT22;63134;52.020;4.714;2023-12-04T13:54:05;6.40;89.00
22787;DHT22;63134;52.020;4.714;2023-12-04T13:57:02;6.40;89.00
22787;DHT22;63134;52.020;4.714;2023-12-04T13:59:49;6.30;89.10
22787;DHT22;63134;52.020;4.714;2023-12-04T14:02:35;6.30;89.00
22787;DHT22;63134;52.020;4.714;2023-12-04T14:05:23;6.20;89.20
22787;DHT22;63134;52.020;4.714;2023-12-04T14:08:09;6.20;89.40
22787;DHT22;63134;52.020;4.714;2023-12-04T14:10:57;6.10;89.70
22787;DHT22;63134;52.020;4.714;2023-12-04T14:13:42;6.10;89.50
22787;DHT22;63134;52.020;4.714;2023-12-04T14:16:31;6.10;89.60
22787;DHT22;63134;52.020;4.714;2023-12-04T14:19:19;6.10;89.70
22787;DHT22;63134;52.020;4.714;2023-12-04T14:22:07;6.00;89.70
22787;DHT22;63134;52.020;4.714;2023-12-04T14:24:52;5.90;89.60
22787;DHT22;63134;52.020;4.714;2023-12-04T14:27:39;5.90;89.60
22787;DHT22;63134;52.020;4.714;2023-12-04T14:30:34;5.80;89.90
22787;DHT22;63134;52.020;4.714;2023-12-04T14:33:22;5.70;90.00
22787;DHT22;63134;52.020;4.714;2023-12-04T14:36:13;5.70;90.00
22787;DHT22;63134;52.020;4.714;2023-12-04T14:38:58;5.60;90.00
22787;DHT22;63134;52.020;4.714;2023-12-04T14:41:45;5.50;90.20
22787;DHT22;63134;52.020;4.714;2023-12-04T14:44:34;5.50;90.30
22787;DHT22;63134;52.020;4.714;2023-12-04T14:47:20;5.50;90.40
22787;DHT22;63134;52.020;4.714;2023-12-04T14:50:16;5.40;90.70
22787;DHT22;63134;52.020;4.714;2023-12-04T14:53:04;5.40;90.30
22787;DHT22;63134;52.020;4.714;2023-12-04T14:56:02;5.40;90.50
22787;DHT22;63134;52.020;4.714;2023-12-04T14:59:06;5.30;90.50
22787;DHT22;63134;52.020;4.714;2023-12-04T15:02:10;5.30;90.70
22787;DHT22;63134;52.020;4.714;2023-12-04T15:05:24;5.20;90.70
22787;DHT22;63134;52.020;4.714;2023-12-04T15:08:28;5.20;90.70
22787;DHT22;63134;52.020;4.714;2023-12-04T15:11:49;5.10;90.90
22787;DHT22;63134;52.020;4.714;2023-12-04T15:14:53;5.10;91.00
22787;DHT22;63134;52.020;4.714;2023-12-04T15:18:00;5.00;91.40
22787;DHT22;63134;52.020;4.714;2023-12-04T15:21:06;5.00;91.20
22787;DHT22;63134;52.020;4.714;2023-12-04T15:23:52;4.90;91.30
22787;DHT22;63134;52.020;4.714;2023-12-04T15:26:41;4.90;91.50
22787;DHT22;63134;52.020;4.714;2023-12-04T15:29:35;4.90;91.60
22787;DHT22;63134;52.020;4.714;2023-12-04T15:32:20;4.90;91.70
22787;DHT22;63134;52.020;4.714;2023-12-04T15:35:08;4.90;91.90
22787;DHT22;63134;52.020;4.714;2023-12-04T15:37:58;4.90;91.80
22787;DHT22;63134;52.020;4.714;2023-12-04T15:40:44;4.90;92.00
22787;DHT22;63134;52.020;4.714;2023-12-04T15:43:33;4.90;91.90
22787;DHT22;63134;52.020;4.714;2023-12-04T15:46:20;4.90;92.00
22787;DHT22;63134;52.020;4.714;2023-12-04T15:49:07;4.90;92.00
22787;DHT22;63134;52.020;4.714;2023-12-04T15:51:53;4.90;92.20
22787;DHT22;63134;52.020;4.714;2023-12-04T15:54:40;4.90;92.20
22787;DHT22;63134;52.020;4.714;2023-12-04T15:57:26;4.90;92.20
22787;DHT22;63134;52.020;4.714;2023-12-04T16:00:13;4.80;92.30
22787;DHT22;63134;52.020;4.714;2023-12-04T16:03:01;4.80;92.40
22787;DHT22;63134;52.020;4.714;2023-12-04T16:05:48;4.80;92.30
22787;DHT22;63134;52.020;4.714;2023-12-04T16:08:34;4.80;92.40
22787;DHT22;63134;52.020;4.714;2023-12-04T16:11:20;4.80;92.40
22787;DHT22;63134;52.020;4.714;2023-12-04T16:14:06;4.80;92.50
22787;DHT22;63134;52.020;4.714;2023-12-04T16:16:55;4.80;92.70
22787;DHT22;63134;52.020;4.714;2023-12-04T16:19:43;4.80;92.70
22787;DHT22;63134;52.020;4.714;2023-12-04T16:22:30;4.80;92.70
22787;DHT22;63134;52.020;4.714;2023-12-04T16:25:17;4.80;92.80
22787;DHT22;63134;52.020;4.714;2023-12-04T16:28:05;4.80;92.60
22787;DHT22;63134;52.020;4.714;2023-12-04T16:30:55;4.80;92.70
22787;DHT22;63134;52.020;4.714;2023-12-04T16:33:41;4.70;92.70
22787;DHT22;63134;52.020;4.714;2023-12-04T16:36:27;4.70;92.80
22787;DHT22;63134;52.020;4.714;2023-12-04T16:39:17;4.70;93.00
22787;DHT22;63134;52.020;4.714;2023-12-04T16:42:02;4.70;93.00
22787;DHT22;63134;52.020;4.714;2023-12-04T16:44:50;4.70;93.10
22787;DHT22;63134;52.020;4.714;2023-12-04T16:47:35;4.70;93.10
22787;DHT22;63134;52.020;4.714;2023-12-04T16:50:21;4.70;93.20
22787;DHT22;63134;52.020;4.714;2023-12-04T16:53:12;4.70;93.20
22787;DHT22;63134;52.020;4.714;2023-12-04T16:55:59;4.70;93.30
22787;DHT22;63134;52.020;4.714;2023-12-04T16:58:45;4.70;93.30
22787;DHT22;63134;52.020;4.714;2023-12-04T17:01:30;4.70;93.20
22787;DHT22;63134;52.020;4.714;2023-12-04T17:04:16;4.70;93.20
22787;DHT22;63134;52.020;4.714;2023-12-04T17:07:02;4.70;93.40
22787;DHT22;63134;52.020;4.714;2023-12-04T17:09:48;4.70;93.50
22787;DHT22;63134;52.020;4.714;2023-12-04T17:12:34;4.70;93.60
22787;DHT22;63134;52.020;4.714;2023-12-04T17:15:21;4.70;93.60
22787;DHT22;63134;52.020;4.714;2023-12-04T17:18:10;4.70;93.60
22787;DHT22;63134;52.020;4.714;2023-12-04T17:20:56;4.70;93.60
22787;DHT22;63134;52.020;4.714;2023-12-04T17:23:44;4.70;93.60
22787;DHT22;63134;52.020;4.714;2023-12-04T17:26:34;4.70;93.30
22787;DHT22;63134;52.020;4.714;2023-12-04T17:29:20;4.70;93.40
22787;DHT22;63134;52.020;4.714;2023-12-04T17:32:08;4.60;93.50
22787;DHT22;63134;52.020;4.714;2023-12-04T17:34:58;4.60;93.60
22787;DHT22;63134;52.020;4.714;2023-12-04T17:37:44;4.60;93.70
22787;DHT22;63134;52.020;4.714;2023-12-04T17:40:30;4.60;93.70
22787;DHT22;63134;52.020;4.714;2023-12-04T17:43:16;4.60;93.70
22787;DHT22;63134;52.020;4.714;2023-12-04T17:46:01;4.60;93.80
22787;DHT22;63134;52.020;4.714;2023-12-04T17:48:49;4.60;93.80
22787;DHT22;63134;52.020;4.714;2023-12-04T17:51:35;4.60;93.80
22787;DHT22;63134;52.020;4.714;2023-12-04T17:54:21;4.60;93.80
22787;DHT22;63134;52.020;4.714;2023-12-04T17:57:08;4.60;93.80